createdAt,value
2019-04-11T00:01:14.215Z,100429.05
2019-04-11T00:03:46.093Z,100436.84
2019-04-11T00:06:19.347Z,100442.22
2019-04-11T00:08:52.323Z,100447.08
2019-04-11T00:11:24.321Z,100445.66
2019-04-11T00:13:56.093Z,100453.02
2019-04-11T00:16:28.956Z,100458.93
2019-04-11T00:19:00.621Z,100457.04
2019-04-11T00:21:32.994Z,100460.85
2019-04-11T00:24:05.008Z,100460.59
2019-04-11T00:26:38.194Z,100459.23
2019-04-11T00:29:10.337Z,100469.88
2019-04-11T00:31:43.086Z,100466.64
2019-04-11T00:34:15.119Z,100472.38
2019-04-11T00:36:46.832Z,100467.64
2019-04-11T00:39:19.493Z,100478.75
2019-04-11T00:41:52.296Z,100473.06
2019-04-11T00:44:25.093Z,100472.22
2019-04-11T00:46:56.959Z,100479.80
2019-04-11T00:49:28.810Z,100472.50
2019-04-11T00:52:00.882Z,100474.12
2019-04-11T00:54:33.218Z,100467.89
2019-04-11T00:57:06.473Z,100472.14
2019-04-11T00:59:38.529Z,100467.79
2019-04-11T01:02:11.409Z,100462.41
2019-04-11T01:04:43.573Z,100465.44
2019-04-11T01:07:16.474Z,100470.30
2019-04-11T01:09:48.625Z,100462.47
2019-04-11T01:12:21.006Z,100464.44
2019-04-11T01:14:53.174Z,100470.97
2019-04-11T01:17:25.396Z,100464.80
2019-04-11T01:19:57.423Z,100467.31
2019-04-11T01:22:29.872Z,100458.69
2019-04-11T01:25:01.772Z,100454.89
2019-04-11T01:27:34.180Z,100455.71
2019-04-11T01:30:10.072Z,100444.60
2019-04-11T01:32:42.373Z,100445.47
2019-04-11T01:35:15.157Z,100446.63
2019-04-11T01:37:48.094Z,100440.69
2019-04-11T01:40:19.891Z,100443.17
2019-04-11T01:42:52.055Z,100438.61
2019-04-11T01:45:25.374Z,100439.48
2019-04-11T01:47:59.459Z,100438.96
2019-04-11T01:50:32.911Z,100430.34
2019-04-11T01:53:05.043Z,100428.47
2019-04-11T01:55:37.102Z,100425.53
2019-04-11T01:58:09.168Z,100432.89
2019-04-11T02:00:49.041Z,100432.16
2019-04-11T02:03:25.586Z,100439.19
2019-04-11T02:05:57.560Z,100452.50
2019-04-11T02:08:29.518Z,100456.31
2019-04-11T02:11:01.449Z,100462.55
2019-04-11T02:13:34.246Z,100465.58
2019-04-11T02:16:06.937Z,100474.30
2019-04-11T02:18:39.390Z,100473.29
2019-04-11T02:21:11.544Z,100475.52
2019-04-11T02:23:57.501Z,100489.33
2019-04-11T02:26:31.471Z,100501.02
2019-04-11T02:29:03.523Z,100502.94
2019-04-11T02:31:36.789Z,100502.38
2019-04-11T02:34:11.219Z,100496.99
2019-04-11T02:36:42.997Z,100503.28
2019-04-11T02:39:19.266Z,100498.70
2019-04-11T02:41:50.620Z,100494.14
2019-04-11T02:44:46.043Z,100487.11
2019-04-11T02:47:01.757Z,100482.24
2019-04-11T02:49:30.977Z,100475.47
2019-04-11T02:52:02.929Z,100490.69
2019-04-11T02:54:36.666Z,100493.34
2019-04-11T02:57:09.964Z,100491.73
2019-04-11T02:59:44.439Z,100492.04
2019-04-11T03:02:19.022Z,100495.05
2019-04-11T03:04:50.926Z,100508.61
2019-04-11T03:07:22.789Z,100510.02
2019-04-11T03:09:56.750Z,100511.37
2019-04-11T03:12:29.717Z,100505.68
2019-04-11T03:15:14.388Z,100510.55
2019-04-11T03:17:42.205Z,100517.28
2019-04-11T03:20:19.711Z,100517.28
2019-04-11T03:22:44.763Z,100525.11
2019-04-11T03:25:17.755Z,100525.37
2019-04-11T03:27:51.808Z,100522.97
2019-04-11T03:30:40.653Z,100530.05
2019-04-11T03:38:40.085Z,100545.49
2019-04-11T03:41:08.774Z,100547.97
2019-04-11T03:43:34.515Z,100550.91
2019-04-11T03:46:18.009Z,100541.69
2019-04-11T03:48:43.748Z,100548.98
2019-04-11T03:51:04.798Z,100544.05
2019-04-11T03:53:37.359Z,100539.94
2019-04-11T03:56:09.758Z,100542.88
2019-04-11T03:58:43.595Z,100545.77
2019-04-11T04:01:18.183Z,100530.81
2019-04-11T04:03:53.943Z,100529.15
2019-04-11T04:06:28.575Z,100522.02
2019-04-11T04:09:02.744Z,100524.38
2019-04-11T04:11:36.274Z,100525.09
2019-04-11T04:14:10.452Z,100524.20
2019-04-11T04:16:48.266Z,100516.20
2019-04-11T04:19:20.557Z,100514.20
2019-04-11T04:22:00.824Z,100500.59
2019-04-11T04:24:39.072Z,100502.52
2019-04-11T04:27:10.102Z,100498.48
2019-04-11T04:29:46.772Z,100504.23
2019-04-11T04:32:18.527Z,100502.06
2019-04-11T04:34:50.814Z,100503.19
2019-04-11T04:41:30.193Z,100505.44
2019-04-11T04:43:54.819Z,100520.31
2019-04-11T04:46:45.330Z,100521.06
2019-04-11T04:49:02.324Z,100516.17
2019-04-11T04:51:35.163Z,100521.25
2019-04-11T04:54:08.122Z,100523.35
2019-04-11T04:56:41.953Z,100518.13
2019-04-11T04:59:14.653Z,100519.36
2019-04-11T05:01:48.320Z,100530.69
2019-04-11T05:04:21.040Z,100536.30
2019-04-11T05:06:54.959Z,100545.39
2019-04-11T05:09:26.874Z,100550.36
2019-04-11T05:11:58.957Z,100546.98
2019-04-11T05:14:31.673Z,100542.19
2019-04-11T05:17:03.498Z,100547.63
2019-04-11T05:19:35.364Z,100543.83
2019-04-11T05:22:08.491Z,100550.88
2019-04-11T05:24:41.049Z,100554.10
2019-04-11T05:27:12.920Z,100552.99
2019-04-11T05:29:45.936Z,100558.52
2019-04-11T05:32:17.833Z,100556.63
2019-04-11T05:34:49.704Z,100561.86
2019-04-11T05:37:22.735Z,100563.28
2019-04-11T05:39:54.576Z,100569.05
2019-04-11T05:42:27.400Z,100568.06
2019-04-11T05:44:59.310Z,100571.83
2019-04-11T05:47:31.709Z,100571.52
2019-04-11T05:50:12.912Z,100572.55
2019-04-11T05:52:42.172Z,100572.94
2019-04-11T05:55:15.515Z,100570.94
2019-04-11T05:57:48.222Z,100572.75
2019-04-11T06:00:21.739Z,100574.70
2019-04-11T06:02:55.280Z,100576.89
2019-04-11T06:05:47.400Z,100567.52
2019-04-11T06:08:25.056Z,100567.90
2019-04-11T06:10:54.696Z,100563.13
2019-04-11T06:13:30.542Z,100570.16
2019-04-11T06:16:04.626Z,100571.33
2019-04-11T06:18:41.884Z,100579.42
2019-04-11T06:21:13.197Z,100578.84
2019-04-11T06:23:47.704Z,100589.83
2019-04-11T06:26:38.676Z,100589.28
2019-04-11T06:29:21.293Z,100586.95
2019-04-11T06:31:49.720Z,100591.76
2019-04-11T06:34:24.060Z,100593.92
2019-04-11T06:36:59.343Z,100593.66
2019-04-11T06:39:35.962Z,100593.16
2019-04-11T06:42:27.578Z,100586.36
2019-04-11T06:45:02.132Z,100593.36
2019-04-11T06:47:37.320Z,100587.75
2019-04-11T06:50:20.476Z,100590.64
2019-04-11T06:52:53.054Z,100588.51
2019-04-11T06:55:42.660Z,100586.19
2019-04-11T06:58:16.054Z,100585.13
2019-04-11T07:00:50.088Z,100589.35
2019-04-11T07:03:25.958Z,100583.42
2019-04-11T07:05:57.282Z,100581.62
2019-04-11T07:08:30.645Z,100588.22
2019-04-11T07:11:20.529Z,100594.42
2019-04-11T07:14:01.904Z,100597.36
2019-04-11T07:16:36.171Z,100594.77
2019-04-11T07:19:09.646Z,100593.16
2019-04-11T07:21:42.025Z,100592.02
2019-04-11T07:24:30.970Z,100591.62
2019-04-11T07:27:04.651Z,100582.64
2019-04-11T07:29:46.974Z,100586.61
2019-04-11T07:32:20.193Z,100589.57
2019-04-11T07:35:00.011Z,100587.29
2019-04-11T07:37:36.748Z,100582.85
2019-04-11T07:40:15.306Z,100584.80
2019-04-11T07:42:59.433Z,100582.22
2019-04-11T07:45:49.134Z,100588.08
2019-04-11T07:48:22.726Z,100581.63
2019-04-11T07:50:55.406Z,100592.17
2019-04-11T07:53:28.542Z,100585.82
2019-04-11T07:56:02.051Z,100587.58
2019-04-11T10:19:38.450Z,100543.48
2019-04-11T10:22:13.011Z,100546.34
2019-04-11T10:24:46.474Z,100538.23
2019-04-11T10:27:36.364Z,100536.00
2019-04-11T10:30:27.479Z,100537.61
2019-04-11T10:33:07.223Z,100537.54
2019-04-11T10:35:40.819Z,100537.47
2019-04-11T10:38:16.224Z,100539.41
2019-04-11T10:40:52.462Z,100530.81
2019-04-11T10:43:24.646Z,100538.83
2019-04-11T10:45:58.807Z,100538.95
2019-04-11T10:48:37.769Z,100538.33
2019-04-11T10:51:07.037Z,100545.06
2019-04-11T10:53:39.645Z,100537.09
2019-04-11T10:56:16.018Z,100537.48
2019-04-11T10:58:49.708Z,100528.64
2019-04-11T11:01:40.186Z,100532.30
2019-04-11T11:04:13.803Z,100534.28
2019-04-11T11:06:48.383Z,100528.50
2019-04-11T11:09:39.940Z,100528.13
2019-04-11T11:12:31.085Z,100518.83
2019-04-11T11:15:04.661Z,100524.86
2019-04-11T11:18:05.569Z,100513.98
2019-04-11T11:20:38.591Z,100519.24
2019-04-11T11:23:24.766Z,100517.06
2019-04-11T11:26:07.400Z,100515.41
2019-04-11T11:28:46.695Z,100512.75
2019-04-11T11:31:24.345Z,100514.25
2019-04-11T11:33:58.850Z,100513.78
2019-04-11T11:36:48.475Z,100512.51
2019-04-11T11:39:22.700Z,100508.33
2019-04-11T11:42:12.564Z,100507.36
2019-04-11T11:44:53.141Z,100505.99
2019-04-11T11:47:43.201Z,100510.03
2019-04-11T11:50:26.773Z,100515.48
2019-04-11T11:53:12.687Z,100504.52
2019-04-11T11:55:45.305Z,100509.20
2019-04-11T11:58:37.862Z,100508.91
2019-04-11T12:01:09.946Z,100504.92
2019-04-11T12:03:49.186Z,100506.10
2019-04-11T12:06:23.858Z,100497.47
2019-04-11T12:09:00.488Z,100501.28
2019-04-11T12:11:35.727Z,100502.31
2019-04-11T12:14:09.708Z,100503.33
2019-04-11T12:16:42.460Z,100504.91
2019-04-11T12:19:22.303Z,100503.36
2019-04-11T12:21:56.000Z,100491.27
2019-04-11T12:24:29.247Z,100494.33
2019-04-11T12:27:04.404Z,100494.39
2019-04-11T12:29:51.643Z,100490.08
2019-04-11T12:32:28.439Z,100487.66
2019-04-11T12:35:06.096Z,100490.83
2019-04-11T12:37:39.487Z,100492.75
2019-04-11T12:40:20.685Z,100485.92
2019-04-11T12:42:52.856Z,100489.94
2019-04-11T12:45:35.358Z,100494.05
2019-04-11T12:48:07.417Z,100493.44
2019-04-11T12:50:59.368Z,100491.21
2019-04-11T12:53:31.421Z,100489.77
2019-04-11T12:56:05.034Z,100490.50
2019-04-11T12:59:24.307Z,100489.15
2019-04-11T13:02:00.476Z,100494.39
2019-04-11T13:04:32.438Z,100488.03
2019-04-11T13:07:09.110Z,100491.04
2019-04-11T13:09:43.854Z,100488.53
2019-04-11T13:12:39.149Z,100490.53
2019-04-11T13:15:24.121Z,100495.70
2019-04-11T13:18:09.836Z,100496.89
2019-04-11T13:20:49.549Z,100492.42
2019-04-11T13:23:40.670Z,100491.17
2019-04-11T13:26:30.529Z,100495.22
2019-04-11T13:29:04.265Z,100496.92
2019-04-11T13:31:55.975Z,100492.66
2019-04-11T13:34:29.564Z,100501.80
2019-04-11T13:37:19.467Z,100497.90
2019-04-11T13:40:09.555Z,100499.99
2019-04-11T13:43:02.520Z,100501.48
2019-04-11T13:45:45.945Z,100492.30
2019-04-11T13:48:35.710Z,100488.63
2019-04-11T13:51:21.107Z,100485.05
2019-04-11T13:54:11.093Z,100490.12
2019-04-11T13:57:02.188Z,100484.13
2019-04-11T13:59:35.790Z,100489.66
2019-04-11T14:02:11.970Z,100485.90
2019-04-11T14:04:57.864Z,100479.39
2019-04-11T14:07:34.219Z,100480.13
2019-04-11T14:10:08.445Z,100471.73
2019-04-11T14:12:40.825Z,100480.19
2019-04-11T14:15:17.388Z,100481.03
2019-04-11T14:18:07.057Z,100475.90
2019-04-11T14:20:59.104Z,100474.98
2019-04-11T14:23:50.612Z,100468.97
2019-04-11T14:26:24.316Z,100462.38
2019-04-11T14:28:56.810Z,100452.91
2019-04-11T14:31:39.124Z,100458.11
2019-04-11T14:34:29.356Z,100458.99
2019-04-11T14:37:21.144Z,100447.88
2019-04-11T14:39:54.850Z,100441.28
2019-04-11T14:42:46.233Z,100445.92
2019-04-11T14:45:36.614Z,100440.14
2019-04-11T14:48:27.066Z,100446.23
2019-04-11T14:51:03.731Z,100444.63
2019-04-11T14:53:53.635Z,100443.03
2019-04-11T14:56:30.298Z,100443.82
2019-04-11T14:59:23.977Z,100441.44
2019-04-11T15:02:12.190Z,100441.95
2019-04-11T15:04:48.984Z,100440.88
2019-04-11T15:07:21.377Z,100442.40
2019-04-11T15:10:10.953Z,100442.27
2019-04-11T15:12:43.117Z,100439.56
2019-04-11T15:15:25.026Z,100437.77
2019-04-11T15:17:58.828Z,100432.19
2019-04-11T15:20:54.183Z,100432.61
2019-04-11T15:23:18.625Z,100437.03
2019-04-11T15:26:08.811Z,100436.44
2019-04-11T15:28:48.453Z,100435.83
2019-04-11T15:31:39.159Z,100439.48
2019-04-11T15:34:12.450Z,100430.91
2019-04-11T15:36:52.341Z,100436.01
2019-04-11T15:39:44.334Z,100431.33
2019-04-11T15:42:15.977Z,100427.67
2019-04-11T15:45:04.770Z,100429.27
2019-04-11T15:47:38.378Z,100431.61
2019-04-11T15:50:30.703Z,100430.42
2019-04-11T15:53:06.607Z,100431.56
2019-04-11T15:55:55.946Z,100421.61
2019-04-11T15:58:29.534Z,100430.50
2019-04-11T16:01:05.999Z,100425.97
2019-04-11T16:03:37.967Z,100423.72
2019-04-11T16:06:27.135Z,100430.66
2019-04-11T16:08:59.731Z,100428.95
2019-04-11T16:11:33.220Z,100432.28
2019-04-11T16:14:06.834Z,100439.44
2019-04-11T16:16:46.587Z,100437.24
2019-04-11T16:19:26.442Z,100437.91
2019-04-11T16:22:02.717Z,100437.73
2019-04-11T16:24:35.572Z,100441.08
2019-04-11T16:27:17.796Z,100448.63
2019-04-11T16:29:54.260Z,100448.22
2019-04-11T16:32:27.749Z,100451.07
2019-04-11T16:35:08.429Z,100457.70
2019-04-11T16:37:41.843Z,100464.25
2019-04-11T16:40:18.199Z,100468.13
2019-04-11T16:42:53.576Z,100468.11
2019-04-11T16:45:42.688Z,100474.57
2019-04-11T16:48:14.680Z,100478.54
2019-04-11T16:50:46.638Z,100477.70
2019-04-11T16:53:21.857Z,100481.66
2019-04-11T16:55:55.521Z,100486.75
2019-04-11T16:58:27.545Z,100486.59
2019-04-11T17:00:59.443Z,100497.78
2019-04-11T17:03:31.472Z,100493.45
2019-04-11T17:06:07.782Z,100498.91
2019-04-11T17:08:51.693Z,100505.39
2019-04-11T17:11:26.724Z,100507.80
2019-04-11T17:13:57.905Z,100514.99
2019-04-11T17:16:30.838Z,100514.70
2019-04-11T17:19:05.473Z,100519.89
2019-04-11T17:21:43.000Z,100524.28
2019-04-11T17:24:10.751Z,100521.61
2019-04-11T17:26:42.923Z,100522.91
2019-04-11T17:29:14.992Z,100524.57
2019-04-11T17:31:47.166Z,100524.28
2019-04-11T17:34:20.551Z,100536.48
2019-04-11T17:36:52.504Z,100528.87
2019-04-11T17:39:24.675Z,100534.58
2019-04-11T17:41:56.657Z,100534.56
2019-04-11T17:44:28.708Z,100537.48
2019-04-11T17:47:00.976Z,100538.70
2019-04-11T17:49:33.066Z,100541.87
2019-04-11T17:52:07.027Z,100535.98
2019-04-11T17:54:43.345Z,100539.38
2019-04-11T17:57:15.213Z,100540.68
2019-04-11T17:59:50.642Z,100541.35
2019-04-11T18:02:22.821Z,100542.08
2019-04-11T18:04:54.983Z,100549.02
2019-04-11T18:07:26.856Z,100550.31
2019-04-11T18:09:58.710Z,100557.81
2019-04-11T18:12:30.676Z,100554.94
2019-04-11T18:15:03.012Z,100551.22
2019-04-11T18:17:36.223Z,100555.60
2019-04-11T18:20:10.154Z,100554.55
2019-04-11T18:22:45.793Z,100558.87
2019-04-11T18:25:15.725Z,100567.87
2019-04-11T18:27:47.467Z,100561.69
2019-04-11T18:30:23.261Z,100569.34
2019-04-11T18:32:54.473Z,100566.98
2019-04-11T18:35:26.506Z,100567.59
2019-04-11T18:38:01.755Z,100568.48
2019-04-11T18:40:33.235Z,100568.01
2019-04-11T18:43:05.298Z,100570.25
2019-04-11T18:45:37.363Z,100566.34
2019-04-11T18:48:09.228Z,100567.34
2019-04-11T18:50:42.067Z,100569.13
2019-04-11T18:53:21.951Z,100569.32
2019-04-11T18:55:53.640Z,100565.98
2019-04-11T18:58:25.597Z,100566.09
2019-04-11T19:00:57.866Z,100564.89
2019-04-11T19:03:35.986Z,100563.91
2019-04-11T19:06:03.404Z,100569.11
2019-04-11T19:08:36.319Z,100567.89
2019-04-11T19:11:08.382Z,100560.13
2019-04-11T19:13:40.218Z,100561.59
2019-04-11T19:16:13.806Z,100559.02
2019-04-11T19:18:47.660Z,100556.11
2019-04-11T19:21:21.091Z,100560.30
2019-04-11T19:23:53.350Z,100559.84
2019-04-11T19:26:25.368Z,100553.46
2019-04-11T19:28:57.121Z,100553.00
2019-04-11T19:31:29.312Z,100551.44
2019-04-11T19:34:04.396Z,100553.65
2019-04-11T19:36:35.129Z,100549.41
2019-04-11T19:39:13.549Z,100554.85
2019-04-11T19:41:42.903Z,100548.20
2019-04-11T19:44:16.859Z,100556.64
2019-04-11T19:46:50.981Z,100557.75
2019-04-11T19:49:24.210Z,100544.81
2019-04-11T19:51:58.653Z,100544.87
2019-04-11T19:54:32.805Z,100543.56
2019-04-11T19:57:07.711Z,100545.53
2019-04-11T19:59:39.454Z,100547.49
2019-04-11T20:02:11.723Z,100548.66
2019-04-11T20:04:43.484Z,100551.14
2019-04-11T20:07:15.399Z,100541.20
2019-04-11T20:09:47.305Z,100541.02
2019-04-11T20:12:20.301Z,100531.38
2019-04-11T20:14:52.460Z,100540.65
2019-04-11T20:17:24.427Z,100546.09
2019-04-11T20:20:01.579Z,100548.04
2019-04-11T20:22:30.192Z,100544.31
2019-04-11T20:25:02.834Z,100541.41
2019-04-11T20:27:35.158Z,100545.52
2019-04-11T20:30:07.847Z,100539.34
2019-04-11T20:32:40.041Z,100548.82
2019-04-11T20:35:11.925Z,100536.68
2019-04-11T20:37:44.720Z,100526.72
2019-04-11T20:40:18.150Z,100528.91
2019-04-11T20:42:54.051Z,100523.23
2019-04-11T20:45:28.483Z,100519.22
2019-04-11T20:48:00.905Z,100523.60
2019-04-11T20:50:32.737Z,100523.39
2019-04-11T20:53:12.626Z,100523.14
2019-04-11T20:55:39.266Z,100522.14
2019-04-11T20:58:11.714Z,100525.92
2019-04-11T21:00:50.091Z,100525.95
2019-04-11T21:03:17.098Z,100526.25
2019-04-11T21:05:48.726Z,100527.89
2019-04-11T21:08:20.392Z,100531.13
2019-04-11T21:10:52.234Z,100533.33
2019-04-11T21:13:24.120Z,100531.72
2019-04-11T21:15:56.655Z,100541.45
2019-04-11T21:18:28.536Z,100532.56
2019-04-11T21:21:00.851Z,100526.91
2019-04-11T21:23:36.714Z,100521.00
2019-04-11T21:26:09.048Z,100524.77
2019-04-11T21:28:40.991Z,100528.31
2019-04-11T21:31:13.183Z,100530.75
2019-04-11T21:33:45.147Z,100519.45
2019-04-11T21:36:18.331Z,100526.47
2019-04-11T21:38:50.509Z,100529.73
2019-04-11T21:41:23.799Z,100528.67
2019-04-11T21:43:55.443Z,100525.47
2019-04-11T21:46:27.955Z,100529.80
2019-04-11T21:48:59.819Z,100532.50
2019-04-11T21:51:31.849Z,100533.57
2019-04-11T21:54:03.811Z,100535.75
2019-04-11T21:56:35.792Z,100539.80
2019-04-11T21:59:07.969Z,100539.80
2019-04-11T22:01:43.002Z,100545.47
2019-04-11T22:04:14.861Z,100546.56
2019-04-11T22:06:47.206Z,100535.79
2019-04-11T22:09:19.188Z,100544.14
2019-04-11T22:11:50.931Z,100548.19
2019-04-11T22:14:23.442Z,100545.25
2019-04-11T22:16:56.738Z,100547.11
2019-04-11T22:19:29.239Z,100545.52
2019-04-11T22:22:02.266Z,100547.66
2019-04-11T22:24:34.382Z,100543.09
2019-04-11T22:27:06.430Z,100542.00
2019-04-11T22:29:39.111Z,100545.23
2019-04-11T22:32:11.268Z,100545.23
2019-04-11T22:34:44.582Z,100545.23
2019-04-11T22:37:16.934Z,100551.97
2019-04-11T22:39:48.992Z,100553.05
2019-04-11T22:42:21.071Z,100549.55
2019-04-11T22:44:52.815Z,100555.48
2019-04-11T22:47:24.802Z,100555.20
2019-04-11T22:49:56.864Z,100557.38
2019-04-11T22:52:29.262Z,100562.23
2019-04-11T22:55:01.211Z,100561.39
2019-04-11T22:57:33.371Z,100563.84
2019-04-11T23:00:08.589Z,100567.61
2019-04-11T23:02:47.420Z,100570.84
2019-04-11T23:05:19.797Z,100578.36
2019-04-11T23:07:51.790Z,100578.63
2019-04-11T23:10:23.827Z,100580.25
2019-04-11T23:12:55.992Z,100576.21
2019-04-11T23:15:27.766Z,100575.94
2019-04-11T23:17:59.732Z,100572.70
2019-04-11T23:20:31.694Z,100569.73
2019-04-11T23:23:03.564Z,100571.34
2019-04-11T23:25:35.418Z,100567.56
2019-04-11T23:28:07.509Z,100568.66
2019-04-11T23:30:39.749Z,100567.81
2019-04-11T23:33:11.522Z,100569.16
2019-04-11T23:35:43.463Z,100568.87
2019-04-11T23:38:15.278Z,100572.09
2019-04-11T23:40:48.897Z,100573.72
2019-04-11T23:43:20.780Z,100576.37
2019-04-11T23:45:53.180Z,100575.03
2019-04-11T23:48:24.814Z,100572.34
2019-04-11T23:50:58.337Z,100564.52
2019-04-11T23:53:29.906Z,100564.52
2019-04-11T23:56:01.733Z,100568.27
2019-04-11T23:58:33.802Z,100570.94
